Culbertson, Montana
Current Conditions -  °F | °C
As of 5:15 PM on Wednesday 22 Oct 2014 (Local Time) from KSDY Reporting Station
Clear Clear  
Wind Chill: 61°   Ceiling: Unl
Heat Index: 61°   Visibility: 10mi
Dew Point: 34°   Wind: 8mph
Humidity: 36%   Direction: 250°WSW
Pressure: 29.86"   Gusts: NA
Location:  48.14°N, 104.52°W
Report Text: KSDY 222315Z AUTO 25007KT 10SM CLR 16/01 A2986 RMK AO1
Loading
Personal Weather Stations






























Interactive Weather Map
Tropical Storm Tracking
New forecast layout! Learn more

10-Day Weather Forecast

Advertisements
Track Severe Weather on mobile